Time;durP1;ratioP1;P1;durP2;ratioP2;P2;SDS_P1;SDS_P2;PMS_P1;PMS_P2;Temp;Humidity;BMP_temperature;BMP_pressure;BME280_temperature;BME280_humidity;BME280_pressure;Samples;Min_cycle;Max_cycle;Signal;HPM_P1;HPM_P2
2022/08/05 00:01:15;;;;;;;3.67;1.70;;;;;;;;;;5055371;28;20032;-77
2022/08/05 00:03:41;;;;;;;2.83;1.85;;;;;;;;;;5060548;28;20025;-77
2022/08/05 00:06:07;;;;;;;5.90;1.92;;;;;;;;;;5056475;28;20024;-77
2022/08/05 00:08:33;;;;;;;3.47;1.48;;;;;;;;;;5067653;28;20032;-77
2022/08/05 00:11:00;;;;;;;5.07;1.65;;;;;;;;;;5067940;28;20032;-77
2022/08/05 00:13:25;;;;;;;4.82;1.75;;;;;;;;;;5066280;28;20028;-78
2022/08/05 00:15:50;;;;;;;6.13;2.53;;;;;;;;;;5061503;28;20028;-77
2022/08/05 00:18:16;;;;;;;4.22;1.80;;;;;;;;;;5063068;28;20035;-77
2022/08/05 00:20:41;;;;;;;4.07;1.70;;;;;;;;;;5066609;28;20039;-78
2022/08/05 00:23:07;;;;;;;3.85;1.80;;;;;;;;;;5058780;28;20035;-77
2022/08/05 00:25:32;;;;;;;4.47;1.90;;;;;;;;;;5065498;28;20082;-77
2022/08/05 00:27:58;;;;;;;4.25;1.98;;;;;;;;;;5061025;28;20024;-78
2022/08/05 00:30:24;;;;;;;3.35;1.55;;;;;;;;;;5061184;28;20028;-77
2022/08/05 00:32:49;;;;;;;5.63;1.90;;;;;;;;;;5064228;28;20044;-77
2022/08/05 00:35:15;;;;;;;4.00;1.90;;;;;;;;;;5066239;28;20028;-75
2022/08/05 00:37:40;;;;;;;3.90;2.00;;;;;;;;;;5064467;28;20077;-78
2022/08/05 00:40:06;;;;;;;4.57;1.60;;;;;;;;;;5064045;28;20382;-77
2022/08/05 00:42:34;;;;;;;4.22;1.92;;;;;;;;;;5064426;28;21363;-77
2022/08/05 00:45:00;;;;;;;3.50;1.65;;;;;;;;;;5066698;28;20078;-77
2022/08/05 00:47:25;;;;;;;3.90;1.80;;;;;;;;;;5061609;28;20477;-77
2022/08/05 00:49:51;;;;;;;4.97;1.88;;;;;;;;;;5068427;28;20047;-77
2022/08/05 00:52:16;;;;;;;4.15;2.20;;;;;;;;;;5060835;28;20029;-74
2022/08/05 00:54:41;;;;;;;2.85;1.83;;;;;;;;;;5066678;28;20109;-75
2022/08/05 00:57:07;;;;;;;4.38;1.92;;;;;;;;;;5065687;28;20050;-77
2022/08/05 00:59:32;;;;;;;4.65;2.13;;;;;;;;;;5067679;28;20025;-77
2022/08/05 01:01:58;;;;;;;6.15;2.10;;;;;;;;;;5061722;28;20520;-78
2022/08/05 01:04:23;;;;;;;4.57;2.13;;;;;;;;;;5065570;28;20072;-77
2022/08/05 01:06:49;;;;;;;6.25;2.30;;;;;;;;;;5060680;28;20111;-78
2022/08/05 01:09:14;;;;;;;4.07;1.90;;;;;;;;;;5065261;28;20040;-76
2022/08/05 01:11:40;;;;;;;3.53;1.70;;;;;;;;;;5061421;28;20032;-77
2022/08/05 01:14:24;;;;;;;4.15;1.70;;;;;;;;;;5062998;28;20060;-78
2022/08/05 01:16:58;;;;;;;3.40;1.80;;;;;;;;;;5057880;28;20740;-77
2022/08/05 01:19:35;;;;;;;3.67;1.60;;;;;;;;;;5065192;28;20484;-77
2022/08/05 01:22:35;;;;;;;6.20;2.00;;;;;;;;;;5062389;28;20443;-78
2022/08/05 01:25:22;;;;;;;4.35;1.85;;;;;;;;;;5063013;28;20025;-76
2022/08/05 01:28:12;;;;;;;4.10;1.98;;;;;;;;;;5061362;28;20040;-78
2022/08/05 01:30:45;;;;;;;5.45;2.20;;;;;;;;;;5065128;28;20566;-77
2022/08/05 01:33:12;;;;;;;4.85;2.33;;;;;;;;;;5065833;28;20048;-78
2022/08/05 01:35:40;;;;;;;5.85;1.70;;;;;;;;;;5063525;28;20528;-77
2022/08/05 01:38:08;;;;;;;4.38;2.08;;;;;;;;;;5058083;28;20025;-77
2022/08/05 01:40:34;;;;;;;6.00;2.15;;;;;;;;;;5068173;28;20459;-77
2022/08/05 01:43:01;;;;;;;5.65;1.90;;;;;;;;;;5066157;28;20056;-75
2022/08/05 01:45:30;;;;;;;4.18;2.08;;;;;;;;;;5063113;28;20027;-77
2022/08/05 01:47:58;;;;;;;5.63;2.10;;;;;;;;;;5063358;28;20021;-77
2022/08/05 01:50:27;;;;;;;4.47;2.00;;;;;;;;;;5068555;28;20036;-77
2022/08/05 01:52:54;;;;;;;5.18;2.10;;;;;;;;;;5065796;28;20119;-77
2022/08/05 01:55:22;;;;;;;4.30;1.77;;;;;;;;;;5065657;28;20127;-77
2022/08/05 01:57:51;;;;;;;5.93;2.08;;;;;;;;;;5062340;28;20028;-76
2022/08/05 02:00:17;;;;;;;4.85;1.75;;;;;;;;;;5068200;28;20551;-76
2022/08/05 02:02:52;;;;;;;6.28;2.10;;;;;;;;;;5065249;28;20032;-77
2022/08/05 02:05:19;;;;;;;4.43;1.85;;;;;;;;;;5061782;28;22308;-77
2022/08/05 02:07:45;;;;;;;4.68;2.00;;;;;;;;;;5067013;28;20059;-77
2022/08/05 02:10:11;;;;;;;4.10;1.83;;;;;;;;;;5064326;28;20060;-77
2022/08/05 02:12:43;;;;;;;3.55;1.70;;;;;;;;;;5068216;28;20092;-74
2022/08/05 02:15:14;;;;;;;2.97;1.77;;;;;;;;;;5059855;28;20036;-78
2022/08/05 02:18:00;;;;;;;3.83;2.00;;;;;;;;;;5066906;28;20404;-75
2022/08/05 02:20:55;;;;;;;4.10;1.60;;;;;;;;;;5070133;28;20024;-77
2022/08/05 02:23:24;;;;;;;5.15;1.95;;;;;;;;;;5070908;28;20136;-77
2022/08/05 02:25:51;;;;;;;4.60;2.50;;;;;;;;;;5060030;28;20557;-75
2022/08/05 02:28:25;;;;;;;5.68;1.83;;;;;;;;;;5067905;28;20389;-77
2022/08/05 02:31:08;;;;;;;5.35;2.10;;;;;;;;;;5067962;28;20048;-77
2022/08/05 02:33:36;;;;;;;4.32;1.75;;;;;;;;;;5066252;28;20435;-77
2022/08/05 02:36:05;;;;;;;3.85;1.90;;;;;;;;;;5068124;28;20029;-78
2022/08/05 02:38:31;;;;;;;4.90;1.88;;;;;;;;;;5062728;28;20028;-74
2022/08/05 02:40:58;;;;;;;5.97;2.20;;;;;;;;;;5064159;28;20025;-75
2022/08/05 02:43:25;;;;;;;3.60;1.75;;;;;;;;;;5064078;28;21482;-77
2022/08/05 02:45:52;;;;;;;4.72;2.00;;;;;;;;;;5064094;28;20029;-77
2022/08/05 02:48:18;;;;;;;3.55;1.85;;;;;;;;;;5066299;28;20485;-75
2022/08/05 02:50:46;;;;;;;4.07;2.00;;;;;;;;;;5069544;28;20028;-74
2022/08/05 02:53:13;;;;;;;5.63;2.10;;;;;;;;;;5059444;28;20025;-77
2022/08/05 02:55:38;;;;;;;4.43;2.40;;;;;;;;;;5066836;28;20074;-77
2022/08/05 02:58:04;;;;;;;4.28;2.08;;;;;;;;;;5065372;28;20412;-77
2022/08/05 03:00:33;;;;;;;4.20;1.95;;;;;;;;;;5067960;28;20040;-75
2022/08/05 03:03:00;;;;;;;4.53;2.10;;;;;;;;;;5061049;28;20455;-77
2022/08/05 03:05:26;;;;;;;3.63;1.90;;;;;;;;;;5057940;28;20036;-77
2022/08/05 03:07:53;;;;;;;4.32;2.10;;;;;;;;;;5058352;28;20066;-77
2022/08/05 03:10:19;;;;;;;8.02;2.47;;;;;;;;;;5063950;28;20392;-77
2022/08/05 03:12:46;;;;;;;4.85;2.10;;;;;;;;;;5062093;28;20050;-77
2022/08/05 03:15:11;;;;;;;4.32;2.00;;;;;;;;;;5065513;28;20555;-78
2022/08/05 03:17:37;;;;;;;5.70;1.95;;;;;;;;;;5070162;28;20116;-77
2022/08/05 03:20:04;;;;;;;6.32;2.78;;;;;;;;;;5067257;28;20024;-77
2022/08/05 03:22:30;;;;;;;4.95;2.45;;;;;;;;;;5062189;28;20058;-77
2022/08/05 03:24:56;;;;;;;4.78;2.28;;;;;;;;;;5063754;28;20052;-78
2022/08/05 03:27:22;;;;;;;3.35;1.73;;;;;;;;;;5070308;28;20020;-77
2022/08/05 03:29:48;;;;;;;4.47;2.40;;;;;;;;;;5076821;28;20400;-78
2022/08/05 03:32:14;;;;;;;4.88;2.38;;;;;;;;;;5067399;28;20044;-74
2022/08/05 03:34:42;;;;;;;4.78;2.30;;;;;;;;;;5061964;28;20299;-75
2022/08/05 03:37:07;;;;;;;3.00;2.10;;;;;;;;;;5073325;28;20025;-77
2022/08/05 03:39:33;;;;;;;4.05;2.08;;;;;;;;;;5056173;28;20490;-77
2022/08/05 03:41:58;;;;;;;4.97;2.30;;;;;;;;;;5056833;28;20437;-77
2022/08/05 03:44:24;;;;;;;4.70;2.10;;;;;;;;;;5059939;28;20035;-76
2022/08/05 03:46:49;;;;;;;4.10;2.05;;;;;;;;;;5064334;28;20021;-77
2022/08/05 03:49:15;;;;;;;3.70;1.88;;;;;;;;;;5059395;28;20503;-75
2022/08/05 03:52:01;;;;;;;4.55;2.10;;;;;;;;;;5061450;28;20028;-77
2022/08/05 03:54:34;;;;;;;4.72;1.90;;;;;;;;;;5066144;28;20029;-74
2022/08/05 03:57:02;;;;;;;4.95;2.05;;;;;;;;;;5065482;28;20489;-74
2022/08/05 03:59:33;;;;;;;3.05;1.98;;;;;;;;;;5067916;28;20104;-76
2022/08/05 04:02:01;;;;;;;4.18;1.88;;;;;;;;;;5064434;28;20021;-74
2022/08/05 04:04:29;;;;;;;5.13;1.90;;;;;;;;;;5071524;28;20028;-77
2022/08/05 04:06:55;;;;;;;4.38;2.03;;;;;;;;;;5061589;28;20016;-77
2022/08/05 04:09:21;;;;;;;4.57;2.10;;;;;;;;;;5060055;28;20036;-77
2022/08/05 04:11:46;;;;;;;4.38;2.30;;;;;;;;;;5059556;28;21183;-77
2022/08/05 04:14:12;;;;;;;4.07;1.98;;;;;;;;;;5063712;28;20028;-77
2022/08/05 04:16:38;;;;;;;4.20;1.70;;;;;;;;;;5066996;28;20473;-75
2022/08/05 04:19:03;;;;;;;3.35;2.00;;;;;;;;;;5064472;28;20086;-77
2022/08/05 04:21:29;;;;;;;5.05;1.95;;;;;;;;;;5067195;28;20082;-77
2022/08/05 04:23:55;;;;;;;4.85;1.92;;;;;;;;;;5066055;28;20422;-77
2022/08/05 04:26:20;;;;;;;5.55;2.47;;;;;;;;;;5069151;28;20025;-77
2022/08/05 04:28:46;;;;;;;4.43;2.00;;;;;;;;;;5064785;28;20491;-77
2022/08/05 04:31:11;;;;;;;5.72;2.00;;;;;;;;;;5066888;28;20397;-75
2022/08/05 04:33:36;;;;;;;4.50;1.80;;;;;;;;;;5066138;28;20174;-77
2022/08/05 04:36:02;;;;;;;3.75;1.90;;;;;;;;;;5068562;28;20598;-75
2022/08/05 04:38:27;;;;;;;4.38;1.80;;;;;;;;;;5060886;28;20032;-77
2022/08/05 04:40:53;;;;;;;3.83;1.88;;;;;;;;;;5068847;28;20036;-74
2022/08/05 04:43:18;;;;;;;5.07;1.83;;;;;;;;;;5066614;28;20039;-74
2022/08/05 04:45:44;;;;;;;4.35;1.80;;;;;;;;;;5060659;28;20024;-77
2022/08/05 04:48:12;;;;;;;4.30;1.60;;;;;;;;;;5066845;28;20054;-74
2022/08/05 04:50:46;;;;;;;4.28;1.60;;;;;;;;;;5057680;28;20134;-76
2022/08/05 04:53:13;;;;;;;4.40;2.08;;;;;;;;;;5064500;28;20028;-77
2022/08/05 04:55:40;;;;;;;3.83;1.80;;;;;;;;;;5069997;28;20024;-77
2022/08/05 04:58:07;;;;;;;6.03;1.85;;;;;;;;;;5067231;28;20546;-77
2022/08/05 05:00:34;;;;;;;4.13;1.60;;;;;;;;;;5065505;28;20024;-77
2022/08/05 05:02:59;;;;;;;6.13;1.90;;;;;;;;;;5066628;28;20125;-77
2022/08/05 05:05:25;;;;;;;4.30;1.70;;;;;;;;;;5064527;28;20059;-77
2022/08/05 05:07:50;;;;;;;4.55;1.48;;;;;;;;;;5066061;28;20552;-77
2022/08/05 05:10:16;;;;;;;3.10;1.55;;;;;;;;;;5064985;28;20113;-74
2022/08/05 05:12:41;;;;;;;4.93;1.60;;;;;;;;;;5070790;28;20058;-77
2022/08/05 05:15:07;;;;;;;3.92;1.58;;;;;;;;;;5070407;28;20020;-77
2022/08/05 05:17:42;;;;;;;4.20;1.70;;;;;;;;;;5070755;28;20200;-77
2022/08/05 05:20:08;;;;;;;5.63;1.77;;;;;;;;;;5072865;28;20032;-77
2022/08/05 05:22:34;;;;;;;4.22;1.75;;;;;;;;;;5067619;28;20073;-77
2022/08/05 05:24:59;;;;;;;3.70;1.50;;;;;;;;;;5064879;28;20388;-77
2022/08/05 05:27:29;;;;;;;3.60;1.50;;;;;;;;;;5063368;28;20040;-74
2022/08/05 05:29:55;;;;;;;4.38;1.80;;;;;;;;;;5062436;28;20542;-77
2022/08/05 05:32:20;;;;;;;3.60;2.00;;;;;;;;;;5060890;28;20068;-77
2022/08/05 05:34:45;;;;;;;5.75;1.80;;;;;;;;;;5066586;28;20024;-77
2022/08/05 05:37:11;;;;;;;4.95;1.83;;;;;;;;;;5073417;28;20035;-77
2022/08/05 05:39:37;;;;;;;4.22;1.90;;;;;;;;;;5070154;28;20032;-76
2022/08/05 05:42:03;;;;;;;3.50;1.60;;;;;;;;;;5067226;28;20027;-77
2022/08/05 05:44:28;;;;;;;5.25;1.90;;;;;;;;;;5072133;28;20032;-77
2022/08/05 05:46:53;;;;;;;3.25;1.60;;;;;;;;;;5069059;28;20492;-78
2022/08/05 05:49:19;;;;;;;5.18;2.00;;;;;;;;;;5068647;28;20028;-77
2022/08/05 05:51:44;;;;;;;5.57;1.98;;;;;;;;;;5072098;28;20036;-76
2022/08/05 05:54:10;;;;;;;3.97;1.88;;;;;;;;;;5064858;28;20761;-76
2022/08/05 05:56:35;;;;;;;4.05;1.88;;;;;;;;;;5065483;28;20024;-77
2022/08/05 05:59:05;;;;;;;3.97;2.00;;;;;;;;;;5066934;28;20554;-77
2022/08/05 06:01:31;;;;;;;5.53;2.05;;;;;;;;;;5061590;28;20021;-77
2022/08/05 06:03:56;;;;;;;6.82;2.03;;;;;;;;;;5061571;28;20036;-77
2022/08/05 06:06:22;;;;;;;4.35;2.00;;;;;;;;;;5069980;28;20522;-77
2022/08/05 06:08:47;;;;;;;5.47;2.10;;;;;;;;;;5063529;28;20532;-77
2022/08/05 06:11:13;;;;;;;3.70;1.98;;;;;;;;;;5064501;28;20115;-77
2022/08/05 06:13:38;;;;;;;4.00;2.10;;;;;;;;;;5065884;28;20210;-77
2022/08/05 06:16:04;;;;;;;4.45;1.75;;;;;;;;;;5066464;28;20377;-77
2022/08/05 06:18:29;;;;;;;6.07;2.05;;;;;;;;;;5069421;28;20040;-78
2022/08/05 06:20:54;;;;;;;8.32;2.30;;;;;;;;;;5064801;28;20082;-77
2022/08/05 06:23:20;;;;;;;4.53;2.15;;;;;;;;;;5067424;28;20090;-74
2022/08/05 06:25:45;;;;;;;4.03;1.98;;;;;;;;;;5066747;28;20507;-77
2022/08/05 06:28:10;;;;;;;3.45;1.75;;;;;;;;;;5072459;28;20032;-77
2022/08/05 06:30:36;;;;;;;3.47;1.67;;;;;;;;;;5058795;28;20028;-77
2022/08/05 06:33:01;;;;;;;2.72;1.80;;;;;;;;;;5067650;28;20124;-77
2022/08/05 06:35:27;;;;;;;4.20;1.83;;;;;;;;;;5068978;28;20042;-77
2022/08/05 06:37:52;;;;;;;4.65;2.47;;;;;;;;;;5066015;28;20029;-75
2022/08/05 06:40:17;;;;;;;6.20;2.10;;;;;;;;;;5063909;28;20023;-73
2022/08/05 06:42:43;;;;;;;4.90;1.70;;;;;;;;;;5066130;28;20753;-77
2022/08/05 06:45:08;;;;;;;3.30;1.70;;;;;;;;;;5069174;28;20451;-77
2022/08/05 06:47:34;;;;;;;4.65;2.00;;;;;;;;;;5056052;28;20024;-77
2022/08/05 06:49:59;;;;;;;5.30;1.70;;;;;;;;;;5063618;28;20028;-75
2022/08/05 06:52:24;;;;;;;4.38;1.80;;;;;;;;;;5062871;28;20036;-77
2022/08/05 06:54:50;;;;;;;4.38;1.88;;;;;;;;;;5064834;28;20552;-77
2022/08/05 06:57:17;;;;;;;4.15;2.10;;;;;;;;;;5059675;28;21893;-77
2022/08/05 06:59:43;;;;;;;5.93;1.88;;;;;;;;;;5064853;28;20479;-75
2022/08/05 07:02:09;;;;;;;3.78;1.80;;;;;;;;;;5068816;28;20580;-76
2022/08/05 07:04:34;;;;;;;4.82;1.85;;;;;;;;;;5062260;28;20059;-74
2022/08/05 07:06:59;;;;;;;4.53;1.85;;;;;;;;;;5069323;28;20074;-74
2022/08/05 07:09:25;;;;;;;4.78;1.67;;;;;;;;;;5064026;28;20515;-77
2022/08/05 07:11:50;;;;;;;4.30;1.75;;;;;;;;;;5061072;28;20380;-76
2022/08/05 07:17:00;;;;;;;3.10;1.30;;;;;;;;;;5066118;28;21274;-77
2022/08/05 07:19:27;;;;;;;3.22;1.50;;;;;;;;;;5060496;28;20024;-76
2022/08/05 07:21:54;;;;;;;5.45;1.90;;;;;;;;;;5055835;28;20028;-77
2022/08/05 07:24:20;;;;;;;3.42;1.40;;;;;;;;;;5061431;28;20055;-77
2022/08/05 07:26:46;;;;;;;3.75;1.45;;;;;;;;;;5056925;28;21389;-75
2022/08/05 07:29:11;;;;;;;3.08;1.30;;;;;;;;;;5058821;28;20154;-77
2022/08/05 07:31:37;;;;;;;5.63;1.48;;;;;;;;;;5060112;28;20045;-77
2022/08/05 07:34:03;;;;;;;3.08;1.30;;;;;;;;;;5059727;28;20071;-77
2022/08/05 07:36:29;;;;;;;4.28;1.60;;;;;;;;;;5060579;28;20073;-77
2022/08/05 07:38:54;;;;;;;2.95;1.13;;;;;;;;;;5059765;28;20032;-75
2022/08/05 07:41:21;;;;;;;2.47;1.23;;;;;;;;;;5060912;28;20064;-77
2022/08/05 07:43:47;;;;;;;4.25;1.80;;;;;;;;;;5062539;28;20481;-77
2022/08/05 07:46:12;;;;;;;3.47;1.13;;;;;;;;;;5064373;28;20213;-74
2022/08/05 07:48:37;;;;;;;2.75;1.20;;;;;;;;;;5063257;28;20031;-77
2022/08/05 07:51:03;;;;;;;2.95;1.38;;;;;;;;;;5053787;28;20052;-77
2022/08/05 07:53:28;;;;;;;3.30;1.20;;;;;;;;;;5059762;28;20020;-77
2022/08/05 07:55:54;;;;;;;2.47;1.02;;;;;;;;;;5057704;28;20028;-77
2022/08/05 07:58:19;;;;;;;4.88;1.20;;;;;;;;;;5058035;28;20458;-76
2022/08/05 08:00:45;;;;;;;3.35;1.27;;;;;;;;;;5059166;28;20070;-77
2022/08/05 08:03:12;;;;;;;2.90;1.30;;;;;;;;;;5058022;28;20333;-77
2022/08/05 08:05:38;;;;;;;2.72;1.30;;;;;;;;;;5076225;28;20024;-77
2022/08/05 08:08:04;;;;;;;2.22;1.50;;;;;;;;;;5057771;28;20017;-77
2022/08/05 08:10:29;;;;;;;4.07;1.50;;;;;;;;;;5055649;28;20074;-77
2022/08/05 08:12:55;;;;;;;4.05;1.30;;;;;;;;;;5059919;28;20090;-77
2022/08/05 08:15:20;;;;;;;3.97;1.13;;;;;;;;;;5058294;28;20039;-77
2022/08/05 08:17:46;;;;;;;5.90;1.60;;;;;;;;;;5056375;28;20443;-77
2022/08/05 08:20:11;;;;;;;2.80;1.50;;;;;;;;;;5059364;28;20119;-74
2022/08/05 08:22:37;;;;;;;3.80;1.73;;;;;;;;;;5061405;28;20074;-77
2022/08/05 08:25:03;;;;;;;4.10;1.30;;;;;;;;;;5062905;28;20035;-75
2022/08/05 08:27:30;;;;;;;2.50;1.27;;;;;;;;;;5070518;28;20047;-74
2022/08/05 08:29:55;;;;;;;1.85;1.35;;;;;;;;;;5067848;28;20029;-77
2022/08/05 08:32:20;;;;;;;4.80;1.58;;;;;;;;;;5068120;28;20044;-74
2022/08/05 08:34:46;;;;;;;3.75;1.50;;;;;;;;;;5068116;28;20020;-77
2022/08/05 08:37:11;;;;;;;2.17;1.40;;;;;;;;;;5064421;28;20466;-77
2022/08/05 08:39:36;;;;;;;2.95;1.20;;;;;;;;;;5074469;28;20035;-74
2022/08/05 08:42:03;;;;;;;2.78;1.38;;;;;;;;;;5070031;28;20025;-77
2022/08/05 08:44:30;;;;;;;2.45;1.30;;;;;;;;;;5067394;28;20032;-77
2022/08/05 08:46:56;;;;;;;2.08;1.40;;;;;;;;;;5072533;28;20030;-76
2022/08/05 08:49:23;;;;;;;3.33;1.52;;;;;;;;;;5071024;28;20119;-77
2022/08/05 08:51:57;;;;;;;2.10;1.20;;;;;;;;;;5073206;28;20021;-77
2022/08/05 08:54:23;;;;;;;1.45;1.05;;;;;;;;;;5071060;28;20103;-77
2022/08/05 08:56:49;;;;;;;2.33;1.00;;;;;;;;;;5073119;28;20438;-77
2022/08/05 08:59:17;;;;;;;3.25;1.10;;;;;;;;;;5073200;28;20028;-77
2022/08/05 09:01:44;;;;;;;3.35;1.30;;;;;;;;;;5070539;28;20033;-76
2022/08/05 09:04:11;;;;;;;1.63;0.90;;;;;;;;;;5064196;28;20036;-75
2022/08/05 09:06:37;;;;;;;1.40;0.80;;;;;;;;;;5062325;28;20162;-77
2022/08/05 09:09:02;;;;;;;1.67;0.80;;;;;;;;;;5070807;28;20110;-77
2022/08/05 09:11:28;;;;;;;2.88;1.00;;;;;;;;;;5071684;28;20027;-75
2022/08/05 09:13:55;;;;;;;2.30;0.73;;;;;;;;;;5067415;28;20469;-76
2022/08/05 09:16:20;;;;;;;2.58;0.80;;;;;;;;;;5053216;28;20031;-77
2022/08/05 09:18:47;;;;;;;2.58;0.77;;;;;;;;;;5064807;28;20408;-77
2022/08/05 09:21:13;;;;;;;2.78;1.00;;;;;;;;;;5075305;28;20055;-77
2022/08/05 09:23:38;;;;;;;1.55;0.70;;;;;;;;;;5072904;28;20032;-77
2022/08/05 09:26:16;;;;;;;1.20;0.60;;;;;;;;;;5070562;28;20123;-77
2022/08/05 09:28:42;;;;;;;1.98;0.75;;;;;;;;;;5074574;28;20511;-74
2022/08/05 09:31:10;;;;;;;1.42;0.80;;;;;;;;;;5069399;28;20108;-75
2022/08/05 09:33:54;;;;;;;3.03;0.90;;;;;;;;;;5071564;28;20055;-75
2022/08/05 09:36:20;;;;;;;3.25;0.90;;;;;;;;;;5064755;28;20032;-75
2022/08/05 09:39:02;;;;;;;2.25;0.80;;;;;;;;;;5073567;28;20056;-79
2022/08/05 09:41:28;;;;;;;2.17;0.80;;;;;;;;;;5069976;28;20032;-75
2022/08/05 09:43:54;;;;;;;1.65;0.80;;;;;;;;;;5073365;28;20031;-79
2022/08/05 09:46:31;;;;;;;1.45;0.88;;;;;;;;;;5078081;28;20032;-75
2022/08/05 09:48:58;;;;;;;0.88;0.68;;;;;;;;;;5071642;28;20020;-80
2022/08/05 09:51:33;;;;;;;1.75;0.70;;;;;;;;;;5071467;28;20085;-79
2022/08/05 09:53:59;;;;;;;1.73;0.60;;;;;;;;;;5077977;28;20024;-75
2022/08/05 09:56:29;;;;;;;0.90;0.60;;;;;;;;;;5066188;28;20558;-75
2022/08/05 09:59:04;;;;;;;1.33;0.50;;;;;;;;;;5069075;28;20028;-80
2022/08/05 10:01:35;;;;;;;1.77;0.70;;;;;;;;;;5067611;28;20047;-75
2022/08/05 10:04:11;;;;;;;1.90;0.90;;;;;;;;;;5062528;28;20025;-77
2022/08/05 10:06:41;;;;;;;2.30;0.60;;;;;;;;;;5065175;28;20032;-75
2022/08/05 10:09:15;;;;;;;1.33;0.60;;;;;;;;;;5069216;28;20028;-75
2022/08/05 10:11:42;;;;;;;0.88;0.40;;;;;;;;;;5070426;28;20024;-79
2022/08/05 10:14:30;;;;;;;0.35;0.35;;;;;;;;;;5055630;28;20107;-79
2022/08/05 10:17:12;;;;;;;1.42;0.50;;;;;;;;;;5068351;28;20036;-78
2022/08/05 10:19:38;;;;;;;0.93;0.63;;;;;;;;;;5064578;28;20033;-79
2022/08/05 10:22:04;;;;;;;1.80;0.50;;;;;;;;;;5066446;28;22333;-79
2022/08/05 10:24:31;;;;;;;1.80;0.60;;;;;;;;;;5060218;28;20027;-77
2022/08/05 10:26:58;;;;;;;1.15;0.60;;;;;;;;;;5050105;28;20040;-76
2022/08/05 10:29:25;;;;;;;0.82;0.50;;;;;;;;;;5064618;28;20105;-79
2022/08/05 10:31:51;;;;;;;4.65;0.80;;;;;;;;;;5066072;28;20044;-77
2022/08/05 10:34:17;;;;;;;2.60;0.70;;;;;;;;;;5061282;28;20049;-80
2022/08/05 10:36:43;;;;;;;0.93;0.60;;;;;;;;;;5059178;28;20032;-79
2022/08/05 10:39:34;;;;;;;1.27;0.82;;;;;;;;;;5068893;28;20032;-78
2022/08/05 10:42:17;;;;;;;1.35;0.50;;;;;;;;;;5060724;28;20384;-79
2022/08/05 10:44:43;;;;;;;;;;;;;;;;;;5066690;28;20030;-80
2022/08/05 10:47:11;;;;;;;0.85;0.43;;;;;;;;;;5072017;28;20379;-79
2022/08/05 10:50:00;;;;;;;2.25;0.80;;;;;;;;;;5072652;28;20099;-81
2022/08/05 10:52:51;;;;;;;0.70;0.50;;;;;;;;;;5071139;28;20033;-80
2022/08/05 10:55:17;;;;;;;1.35;0.60;;;;;;;;;;5068058;28;20407;-80
2022/08/05 10:57:44;;;;;;;1.08;0.63;;;;;;;;;;5070598;28;20142;-75
2022/08/05 11:00:21;;;;;;;1.50;0.60;;;;;;;;;;5072930;28;20062;-80
2022/08/05 11:03:05;;;;;;;1.92;0.50;;;;;;;;;;5067682;28;20033;-79
2022/08/05 11:05:35;;;;;;;2.65;0.60;;;;;;;;;;5067736;28;20024;-75
2022/08/05 11:08:03;;;;;;;1.52;0.70;;;;;;;;;;5069803;28;20047;-79
2022/08/05 11:10:30;;;;;;;2.13;0.70;;;;;;;;;;5070053;28;20111;-80
2022/08/05 11:12:56;;;;;;;1.33;0.70;;;;;;;;;;5069265;28;20028;-74
2022/08/05 11:15:31;;;;;;;1.35;0.52;;;;;;;;;;5066231;28;20032;-80
2022/08/05 11:18:27;;;;;;;1.10;0.50;;;;;;;;;;5072785;28;20387;-79
2022/08/05 11:20:53;;;;;;;1.92;0.50;;;;;;;;;;5052457;28;20488;-79
2022/08/05 11:23:51;;;;;;;2.47;0.60;;;;;;;;;;5052840;28;20035;-80
2022/08/05 11:26:18;;;;;;;1.13;0.60;;;;;;;;;;5069964;28;20032;-79
2022/08/05 11:28:46;;;;;;;1.80;0.70;;;;;;;;;;5063796;28;20021;-75
2022/08/05 11:31:11;;;;;;;1.63;0.45;;;;;;;;;;5070541;28;20032;-75
2022/08/05 11:33:38;;;;;;;1.27;0.40;;;;;;;;;;5055357;28;20053;-76
2022/08/05 11:36:08;;;;;;;1.75;0.50;;;;;;;;;;5059014;28;20025;-79
2022/08/05 11:38:40;;;;;;;2.63;0.60;;;;;;;;;;5052883;28;20143;-77
2022/08/05 11:41:07;;;;;;;1.50;0.47;;;;;;;;;;5054833;28;20533;-76
2022/08/05 11:43:32;;;;;;;1.13;0.47;;;;;;;;;;5052408;28;20056;-79
2022/08/05 11:45:59;;;;;;;2.03;0.43;;;;;;;;;;5057086;28;20074;-77
2022/08/05 11:48:25;;;;;;;1.02;0.40;;;;;;;;;;5057582;28;20111;-75
2022/08/05 11:50:51;;;;;;;1.77;0.60;;;;;;;;;;5057030;28;20060;-79
2022/08/05 11:53:18;;;;;;;1.05;0.60;;;;;;;;;;5058965;28;20032;-79
2022/08/05 11:55:58;;;;;;;1.13;0.57;;;;;;;;;;5055103;28;20024;-78
2022/08/05 11:58:29;;;;;;;1.75;0.50;;;;;;;;;;5052404;28;20048;-77
2022/08/05 12:01:01;;;;;;;0.85;0.43;;;;;;;;;;5060239;28;20039;-75
2022/08/05 12:03:27;;;;;;;1.45;0.70;;;;;;;;;;5061131;28;20036;-79
2022/08/05 12:05:53;;;;;;;2.25;0.75;;;;;;;;;;5057580;28;20045;-75
2022/08/05 12:08:18;;;;;;;2.20;0.88;;;;;;;;;;5064065;28;20029;-78
2022/08/05 12:10:45;;;;;;;1.58;0.73;;;;;;;;;;5059714;28;20378;-77
2022/08/05 12:13:10;;;;;;;1.55;0.60;;;;;;;;;;5051371;28;20444;-78
2022/08/05 12:15:35;;;;;;;2.88;0.80;;;;;;;;;;5061004;28;20110;-77
2022/08/05 12:18:01;;;;;;;1.83;0.60;;;;;;;;;;5058790;28;20029;-77
2022/08/05 12:20:27;;;;;;;1.48;0.70;;;;;;;;;;5059299;28;20503;-75
2022/08/05 12:23:07;;;;;;;2.08;0.63;;;;;;;;;;5058757;28;20040;-79
2022/08/05 12:25:48;;;;;;;1.42;0.47;;;;;;;;;;5063354;28;20051;-75
2022/08/05 12:28:35;;;;;;;2.30;0.50;;;;;;;;;;5061678;28;20024;-78
2022/08/05 12:31:02;;;;;;;1.13;0.50;;;;;;;;;;5058298;28;20392;-77
2022/08/05 12:33:28;;;;;;;2.17;0.50;;;;;;;;;;5065341;28;20048;-80
2022/08/05 12:35:56;;;;;;;1.75;0.50;;;;;;;;;;5063522;28;20029;-80
2022/08/05 12:38:22;;;;;;;1.13;0.40;;;;;;;;;;5056329;28;20090;-80
2022/08/05 12:40:49;;;;;;;1.73;0.50;;;;;;;;;;5063189;28;20031;-79
2022/08/05 12:43:15;;;;;;;3.13;0.50;;;;;;;;;;5064374;28;20029;-79
2022/08/05 12:45:54;;;;;;;1.75;0.52;;;;;;;;;;5056362;28;20039;-81
2022/08/05 12:48:20;;;;;;;0.40;0.40;;;;;;;;;;5063342;28;20499;-80
2022/08/05 12:51:16;;;;;;;2.13;0.47;;;;;;;;;;5056501;28;20033;-77
2022/08/05 12:53:45;;;;;;;0.77;0.40;;;;;;;;;;5074943;28;20017;-77
2022/08/05 12:56:23;;;;;;;1.48;0.50;;;;;;;;;;5068942;28;20032;-76
2022/08/05 12:59:17;;;;;;;5.18;0.70;;;;;;;;;;5058508;28;20459;-76
2022/08/05 13:01:43;;;;;;;;;;;;;;;;;;5058972;28;20045;-78
2022/08/05 13:04:08;;;;;;;1.80;0.60;;;;;;;;;;5063748;28;19916;-79
2022/08/05 13:06:41;;;;;;;1.85;0.57;;;;;;;;;;5064468;28;20035;-76
2022/08/05 13:09:09;;;;;;;1.90;0.50;;;;;;;;;;5061031;28;20028;-79
2022/08/05 13:11:39;;;;;;;1.83;0.50;;;;;;;;;;5059934;28;20565;-80
2022/08/05 13:14:18;;;;;;;0.95;0.45;;;;;;;;;;5064022;28;20056;-77
2022/08/05 13:16:49;;;;;;;1.42;0.57;;;;;;;;;;5060597;28;20389;-76
2022/08/05 13:19:14;;;;;;;0.88;0.35;;;;;;;;;;5057364;28;20056;-78
2022/08/05 13:21:41;;;;;;;0.98;0.50;;;;;;;;;;5060013;28;20083;-75
2022/08/05 13:24:06;;;;;;;2.63;0.68;;;;;;;;;;5048517;28;20035;-78
2022/08/05 13:26:32;;;;;;;1.33;0.45;;;;;;;;;;5058137;28;20028;-77
2022/08/05 13:28:58;;;;;;;0.73;0.50;;;;;;;;;;5055301;28;20035;-78
2022/08/05 13:31:23;;;;;;;0.98;0.38;;;;;;;;;;5059900;28;20260;-77
2022/08/05 13:33:48;;;;;;;0.63;0.40;;;;;;;;;;5060340;28;20521;-77
2022/08/05 13:36:14;;;;;;;0.82;0.40;;;;;;;;;;5042334;28;20063;-77
2022/08/05 13:38:39;;;;;;;1.55;0.50;;;;;;;;;;5052908;28;20032;-78
2022/08/05 13:41:05;;;;;;;2.33;0.40;;;;;;;;;;5059996;28;20052;-76
2022/08/05 13:43:30;;;;;;;1.60;0.47;;;;;;;;;;5063821;28;20381;-79
2022/08/05 13:45:55;;;;;;;0.55;0.30;;;;;;;;;;5067829;28;20024;-75
2022/08/05 13:48:21;;;;;;;0.77;0.40;;;;;;;;;;5063810;28;20025;-78
2022/08/05 13:50:46;;;;;;;1.17;0.50;;;;;;;;;;5057597;28;20073;-74
2022/08/05 13:53:11;;;;;;;1.13;0.40;;;;;;;;;;5064325;28;20051;-78
2022/08/05 13:55:37;;;;;;;2.40;0.40;;;;;;;;;;5062344;28;20717;-79
2022/08/05 13:58:03;;;;;;;1.08;0.40;;;;;;;;;;5064961;28;20434;-75
2022/08/05 14:00:28;;;;;;;1.05;0.50;;;;;;;;;;5069120;28;20122;-75
2022/08/05 14:02:56;;;;;;;1.60;0.50;;;;;;;;;;5066607;28;20028;-75
2022/08/05 14:05:22;;;;;;;0.75;0.40;;;;;;;;;;5066485;28;20546;-75
2022/08/05 14:07:48;;;;;;;0.30;0.30;;;;;;;;;;5064673;28;20312;-80
2022/08/05 14:10:19;;;;;;;1.60;0.60;;;;;;;;;;5066951;28;20472;-79
2022/08/05 14:12:45;;;;;;;1.83;0.40;;;;;;;;;;5064772;28;20029;-77
2022/08/05 14:15:12;;;;;;;1.73;0.50;;;;;;;;;;5066853;28;20436;-75
2022/08/05 14:17:38;;;;;;;1.17;0.40;;;;;;;;;;5065426;28;20028;-79
2022/08/05 14:20:04;;;;;;;1.20;0.50;;;;;;;;;;5061589;28;20557;-78
2022/08/05 14:22:30;;;;;;;0.70;0.40;;;;;;;;;;5062208;28;20656;-77
2022/08/05 14:24:56;;;;;;;3.45;0.60;;;;;;;;;;5058584;28;20017;-75
2022/08/05 14:27:21;;;;;;;1.65;0.50;;;;;;;;;;5068526;28;20043;-74
2022/08/05 14:29:47;;;;;;;0.55;0.40;;;;;;;;;;5062478;28;20028;-78
2022/08/05 14:32:12;;;;;;;2.58;0.40;;;;;;;;;;5064169;28;20084;-75
2022/08/05 14:34:38;;;;;;;1.13;0.50;;;;;;;;;;5063931;28;20123;-79
2022/08/05 14:37:04;;;;;;;1.77;0.50;;;;;;;;;;5068529;28;20035;-77
2022/08/05 14:39:30;;;;;;;2.45;0.55;;;;;;;;;;5072236;28;20024;-79
2022/08/05 14:41:56;;;;;;;1.73;0.50;;;;;;;;;;5063766;28;20066;-77
2022/08/05 14:44:21;;;;;;;0.90;0.40;;;;;;;;;;5057213;28;20040;-76
2022/08/05 14:46:46;;;;;;;1.40;0.50;;;;;;;;;;5064304;28;20035;-79
2022/08/05 14:49:12;;;;;;;1.27;0.45;;;;;;;;;;5061668;28;20111;-75
2022/08/05 14:51:39;;;;;;;1.38;0.40;;;;;;;;;;5067524;28;20032;-77